Sanjo, Japan
Current Conditions -  °F | °C
As of 3:00 PM on Thursday 23 Oct 2014 (Local Time) from RJSN Reporting Station
Broken Clouds Broken Clouds  
Wind Chill: 59°   Ceiling: Unl
Heat Index: 59°   Visibility: 6mi
Dew Point: 45°   Wind: 6mph
Humidity: 59%   Direction: 20°NNE
Pressure: 30.06"   Gusts: NA
Location:  37.62°N, 138.96°E
Report Text: RJSN 230600Z 02005KT 340V060 9999 FEW030 SCT180 BKN/// 15/07 Q1018
Loading
Personal Weather Stations






























Interactive Weather Map
Tropical Storm Tracking
New forecast layout! Learn more

10-Day Weather Forecast

Advertisements
Track Severe Weather on mobile